Time;durP1;ratioP1;P1;durP2;ratioP2;P2;SDS_P1;SDS_P2;PMS_P1;PMS_P2;Temp;Humidity;BMP_temperature;BMP_pressure;BME280_temperature;BME280_humidity;BME280_pressure;Samples;Min_cycle;Max_cycle;Signal;HPM_P1;HPM_P2
2023/10/18 00:02:16;;;;;;;2.63;2.40;;;;;;;;;;5073535;28;20743;-80
2023/10/18 00:04:44;;;;;;;4.37;2.97;;;;;;;;;;5062703;28;20205;-79
2023/10/18 00:07:15;;;;;;;4.73;2.90;;;;;;;;;;5073003;28;20201;-79
2023/10/18 00:09:49;;;;;;;3.63;3.10;;;;;;;;;;5063577;28;20201;-79
2023/10/18 00:12:18;;;;;;;7.50;3.13;;;;;;;;;;5074286;28;20671;-79
2023/10/18 00:14:47;;;;;;;3.63;3.33;;;;;;;;;;5074388;28;20201;-78
2023/10/18 00:17:14;;;;;;;3.47;3.17;;;;;;;;;;5070290;28;20217;-78
2023/10/18 00:19:41;;;;;;;4.67;2.97;;;;;;;;;;5064691;28;20201;-78
2023/10/18 00:22:09;;;;;;;3.50;3.03;;;;;;;;;;5060383;28;20211;-79
2023/10/18 00:24:37;;;;;;;7.77;3.80;;;;;;;;;;5074157;28;20251;-78
2023/10/18 00:27:04;;;;;;;3.57;3.27;;;;;;;;;;5073841;28;20232;-78
2023/10/18 00:29:31;;;;;;;4.07;3.67;;;;;;;;;;5074137;28;20258;-77
2023/10/18 00:32:00;;;;;;;4.77;3.80;;;;;;;;;;5060140;28;20205;-78
2023/10/18 00:34:28;;;;;;;5.43;3.77;;;;;;;;;;5074446;28;20201;-77
2023/10/18 00:36:55;;;;;;;5.77;3.47;;;;;;;;;;5072866;28;20224;-78
2023/10/18 00:39:27;;;;;;;6.10;3.80;;;;;;;;;;5073693;28;20237;-78
2023/10/18 00:41:54;;;;;;;5.30;3.60;;;;;;;;;;5048149;28;20280;-84
2023/10/18 00:44:22;;;;;;;4.97;4.33;;;;;;;;;;5073058;28;20258;-78
2023/10/18 00:46:50;;;;;;;3.57;3.33;;;;;;;;;;5073516;28;20202;-78
2023/10/18 00:49:20;;;;;;;5.47;4.07;;;;;;;;;;5072992;28;20236;-78
2023/10/18 00:51:47;;;;;;;5.50;3.90;;;;;;;;;;5073406;28;20205;-78
2023/10/18 00:54:14;;;;;;;6.67;3.63;;;;;;;;;;5072752;28;20212;-78
2023/10/18 00:56:43;;;;;;;6.53;4.07;;;;;;;;;;5073204;28;20317;-77
2023/10/18 00:59:18;;;;;;;4.50;4.10;;;;;;;;;;5072317;28;20189;-77
2023/10/18 01:01:46;;;;;;;5.80;5.30;;;;;;;;;;5072916;28;20205;-77
2023/10/18 01:04:13;;;;;;;4.17;3.80;;;;;;;;;;5072837;28;20197;-78
2023/10/18 01:06:47;;;;;;;4.57;4.07;;;;;;;;;;5073295;28;20211;-77
2023/10/18 01:09:15;;;;;;;4.70;4.30;;;;;;;;;;5072830;28;20203;-77
2023/10/18 01:11:45;;;;;;;5.17;4.40;;;;;;;;;;5072999;28;20236;-77
2023/10/18 01:14:16;;;;;;;5.83;4.70;;;;;;;;;;5072812;28;20213;-78
2023/10/18 01:16:44;;;;;;;4.17;3.87;;;;;;;;;;5072569;28;20236;-78
2023/10/18 01:19:14;;;;;;;4.73;4.30;;;;;;;;;;5059460;28;20201;-78
2023/10/18 01:21:45;;;;;;;5.63;4.57;;;;;;;;;;5072313;28;20208;-78
2023/10/18 01:24:15;;;;;;;4.00;3.60;;;;;;;;;;5073379;28;20197;-78
2023/10/18 01:26:44;;;;;;;4.93;4.17;;;;;;;;;;5072187;28;20296;-78
2023/10/18 01:29:11;;;;;;;8.23;4.57;;;;;;;;;;5064915;28;20297;-78
2023/10/18 01:31:43;;;;;;;6.40;4.37;;;;;;;;;;5067632;28;20782;-78
2023/10/18 01:34:10;;;;;;;4.90;4.40;;;;;;;;;;5073061;28;20200;-77
2023/10/18 01:36:39;;;;;;;6.13;4.13;;;;;;;;;;5072400;28;20235;-78
2023/10/18 01:39:09;;;;;;;3.90;3.60;;;;;;;;;;5072472;28;20259;-78
2023/10/18 01:41:37;;;;;;;4.83;4.07;;;;;;;;;;5058128;28;20200;-78
2023/10/18 01:44:06;;;;;;;5.50;4.63;;;;;;;;;;5072755;28;20635;-78
2023/10/18 01:46:34;;;;;;;6.63;3.80;;;;;;;;;;5072755;28;20208;-78
2023/10/18 01:49:01;;;;;;;5.33;4.10;;;;;;;;;;5072439;28;20270;-78
2023/10/18 01:51:28;;;;;;;6.00;4.17;;;;;;;;;;5071574;28;20205;-79
2023/10/18 01:53:55;;;;;;;5.20;4.70;;;;;;;;;;5072374;28;20655;-77
2023/10/18 01:56:22;;;;;;;4.60;4.20;;;;;;;;;;5058737;28;20221;-78
2023/10/18 01:58:49;;;;;;;6.77;3.97;;;;;;;;;;5072305;28;20691;-77
2023/10/18 02:01:18;;;;;;;5.83;3.90;;;;;;;;;;5071813;28;20194;-77
2023/10/18 02:03:46;;;;;;;4.23;3.63;;;;;;;;;;5072289;28;20208;-77
2023/10/18 02:06:14;;;;;;;3.70;3.40;;;;;;;;;;5070824;28;20204;-78
2023/10/18 02:08:41;;;;;;;4.63;3.33;;;;;;;;;;5072084;28;20205;-77
2023/10/18 02:11:09;;;;;;;3.93;3.63;;;;;;;;;;5070945;28;20198;-78
2023/10/18 02:13:36;;;;;;;3.57;3.27;;;;;;;;;;5071566;28;20201;-78
2023/10/18 02:16:06;;;;;;;5.23;2.90;;;;;;;;;;5072356;28;20254;-78
2023/10/18 02:18:34;;;;;;;6.03;3.40;;;;;;;;;;5070495;28;20236;-78
2023/10/18 02:21:02;;;;;;;3.60;3.30;;;;;;;;;;5060045;28;20646;-77
2023/10/18 02:23:34;;;;;;;3.43;3.13;;;;;;;;;;5071546;28;20233;-79
2023/10/18 02:26:01;;;;;;;4.40;3.20;;;;;;;;;;5062477;28;20700;-78
2023/10/18 02:28:28;;;;;;;3.50;3.20;;;;;;;;;;5067579;28;20205;-77
2023/10/18 02:31:08;;;;;;;4.63;3.30;;;;;;;;;;5071318;28;20260;-77
2023/10/18 02:33:38;;;;;;;3.53;3.23;;;;;;;;;;5058483;28;20197;-78
2023/10/18 02:36:10;;;;;;;3.80;3.50;;;;;;;;;;5059496;28;20226;-78
2023/10/18 02:38:38;;;;;;;3.73;3.43;;;;;;;;;;5070947;28;20212;-77
2023/10/18 02:41:14;;;;;;;8.30;3.23;;;;;;;;;;5057852;28;20339;-81
2023/10/18 02:43:45;;;;;;;4.63;4.13;;;;;;;;;;5039464;28;20206;-77
2023/10/18 02:46:13;;;;;;;4.13;3.83;;;;;;;;;;5066259;28;20205;-78
2023/10/18 02:48:43;;;;;;;4.30;3.87;;;;;;;;;;5071297;28;20209;-78
2023/10/18 02:51:11;;;;;;;3.70;3.40;;;;;;;;;;5070953;28;20691;-78
2023/10/18 02:53:41;;;;;;;4.00;3.57;;;;;;;;;;5070584;28;20684;-78
2023/10/18 02:56:08;;;;;;;6.50;3.60;;;;;;;;;;5070487;28;20228;-79
2023/10/18 02:58:38;;;;;;;14.03;8.93;;;;;;;;;;5070243;28;20672;-79
2023/10/18 03:01:07;;;;;;;15.40;10.83;;;;;;;;;;5066498;28;20220;-78
2023/10/18 03:03:34;;;;;;;16.10;9.97;;;;;;;;;;5059449;28;20288;-78
2023/10/18 03:06:06;;;;;;;18.77;10.93;;;;;;;;;;5067276;28;20711;-79
2023/10/18 03:08:33;;;;;;;10.67;6.93;;;;;;;;;;5069692;28;20680;-78
2023/10/18 03:11:03;;;;;;;11.97;5.77;;;;;;;;;;5057762;28;20205;-82
2023/10/18 03:13:31;;;;;;;4.50;3.80;;;;;;;;;;5070541;28;20216;-82
2023/10/18 03:16:15;;;;;;;3.53;3.20;;;;;;;;;;5038912;28;20226;-78
2023/10/18 03:18:42;;;;;;;7.27;3.37;;;;;;;;;;5052712;28;20201;-77
2023/10/18 03:21:20;;;;;;;4.60;3.43;;;;;;;;;;5051544;28;20696;-78
2023/10/18 03:23:50;;;;;;;4.50;2.97;;;;;;;;;;5064011;28;20208;-78
2023/10/18 03:26:21;;;;;;;3.73;3.27;;;;;;;;;;5050900;28;20202;-79
2023/10/18 03:28:50;;;;;;;3.10;2.80;;;;;;;;;;5063903;28;20271;-78
2023/10/18 03:31:27;;;;;;;2.67;2.43;;;;;;;;;;5057212;28;20250;-78
2023/10/18 03:33:55;;;;;;;2.93;2.73;;;;;;;;;;5070919;28;20200;-78
2023/10/18 03:36:25;;;;;;;4.90;3.07;;;;;;;;;;5056469;28;20221;-78
2023/10/18 03:38:54;;;;;;;4.30;3.90;;;;;;;;;;5070845;28;20208;-78
2023/10/18 03:41:23;;;;;;;5.33;4.37;;;;;;;;;;5070032;28;20216;-78
2023/10/18 03:43:58;;;;;;;4.53;3.83;;;;;;;;;;5070537;28;20209;-79
2023/10/18 03:46:29;;;;;;;5.60;4.40;;;;;;;;;;5059515;28;20726;-76
2023/10/18 03:49:01;;;;;;;13.73;9.20;;;;;;;;;;5042348;28;20217;-80
2023/10/18 03:51:30;;;;;;;11.27;10.13;;;;;;;;;;5065182;28;20243;-79
2023/10/18 03:54:00;;;;;;;10.00;7.17;;;;;;;;;;5070641;28;20737;-79
2023/10/18 03:56:32;;;;;;;9.00;8.20;;;;;;;;;;5068778;28;20231;-80
2023/10/18 03:59:03;;;;;;;5.90;5.20;;;;;;;;;;5060682;28;20755;-80
2023/10/18 04:01:39;;;;;;;5.83;5.33;;;;;;;;;;5062011;28;20284;-80
2023/10/18 04:04:07;;;;;;;4.97;4.57;;;;;;;;;;5060253;28;20197;-79
2023/10/18 04:06:36;;;;;;;5.33;4.43;;;;;;;;;;5064561;28;20653;-79
2023/10/18 04:09:13;;;;;;;7.33;3.90;;;;;;;;;;5058082;28;20595;-79
2023/10/18 04:11:41;;;;;;;4.17;3.47;;;;;;;;;;5049051;28;20209;-78
2023/10/18 04:14:09;;;;;;;6.73;3.33;;;;;;;;;;5055945;28;20736;-80
2023/10/18 04:16:36;;;;;;;8.60;4.10;;;;;;;;;;5040501;28;20664;-81
2023/10/18 04:19:07;;;;;;;5.00;3.80;;;;;;;;;;5064131;28;20213;-82
2023/10/18 04:21:36;;;;;;;4.17;3.77;;;;;;;;;;5068515;28;20215;-81
2023/10/18 04:24:04;;;;;;;4.00;3.20;;;;;;;;;;5069823;28;20271;-82
2023/10/18 04:26:31;;;;;;;5.00;4.13;;;;;;;;;;5054047;28;20248;-79
2023/10/18 04:29:02;;;;;;;6.77;5.67;;;;;;;;;;5063422;28;20638;-78
2023/10/18 04:31:29;;;;;;;6.23;5.20;;;;;;;;;;5042085;28;20209;-81
2023/10/18 04:33:57;;;;;;;6.07;5.37;;;;;;;;;;5070757;28;20205;-78
2023/10/18 04:36:25;;;;;;;4.90;4.40;;;;;;;;;;5073434;28;20271;-81
2023/10/18 04:38:53;;;;;;;6.47;5.47;;;;;;;;;;5073768;28;20572;-84
2023/10/18 04:41:31;;;;;;;6.00;4.53;;;;;;;;;;5065946;28;20680;-82
2023/10/18 04:44:04;;;;;;;4.80;4.33;;;;;;;;;;5063925;28;20284;-88
2023/10/18 04:46:31;;;;;;;3.73;3.43;;;;;;;;;;5055428;28;20216;-84
2023/10/18 04:49:16;;;;;;;3.67;3.37;;;;;;;;;;5071504;28;20317;-84
2023/10/18 04:51:44;;;;;;;11.53;8.57;;;;;;;;;;5073013;28;20203;-79
2023/10/18 04:54:16;;;;;;;8.03;5.93;;;;;;;;;;5072194;28;20754;-80
2023/10/18 04:56:44;;;;;;;5.20;4.50;;;;;;;;;;5063957;28;20645;-81
2023/10/18 04:59:22;;;;;;;6.77;4.73;;;;;;;;;;5068791;28;20259;-79
2023/10/18 05:01:56;;;;;;;5.90;3.63;;;;;;;;;;5071643;28;20205;-78
2023/10/18 05:04:29;;;;;;;8.33;4.40;;;;;;;;;;5061640;28;20737;-81
2023/10/18 05:06:55;;;;;;;7.83;6.40;;;;;;;;;;5061926;28;20202;-80
2023/10/18 05:09:34;;;;;;;11.63;8.50;;;;;;;;;;5066762;28;20212;-78
2023/10/18 05:12:07;;;;;;;11.13;8.10;;;;;;;;;;5062002;28;20202;-80
2023/10/18 05:14:40;;;;;;;6.27;5.70;;;;;;;;;;5064456;28;20211;-79
2023/10/18 05:17:10;;;;;;;7.00;5.20;;;;;;;;;;5072738;28;20229;-81
2023/10/18 05:19:41;;;;;;;6.33;5.47;;;;;;;;;;5073456;28;20197;-80
2023/10/18 05:22:09;;;;;;;7.97;7.17;;;;;;;;;;5073015;28;20256;-80
2023/10/18 05:24:40;;;;;;;12.30;8.93;;;;;;;;;;5071771;28;20201;-83
2023/10/18 05:27:19;;;;;;;25.10;19.70;;;;;;;;;;5066260;28;20220;-83
2023/10/18 05:29:52;;;;;;;8.70;7.90;;;;;;;;;;5046636;28;20583;-84
2023/10/18 05:32:37;;;;;;;14.77;11.13;;;;;;;;;;5041071;28;20284;-84
2023/10/18 05:35:19;;;;;;;13.47;10.73;;;;;;;;;;5053036;28;20203;-82
2023/10/18 05:37:50;;;;;;;8.87;7.97;;;;;;;;;;5065644;28;20264;-83
2023/10/18 05:43:04;;;;;;;8.60;7.70;;;;;;;;;;5068819;28;20278;-84
2023/10/18 05:45:31;;;;;;;12.20;10.97;;;;;;;;;;5063333;28;20216;-84
2023/10/18 05:48:03;;;;;;;9.10;8.20;;;;;;;;;;5042785;28;20278;-86
2023/10/18 05:50:34;;;;;;;5.30;4.90;;;;;;;;;;5073004;28;20259;-82
2023/10/18 05:53:06;;;;;;;8.13;7.33;;;;;;;;;;5072310;28;20193;-81
2023/10/18 05:55:38;;;;;;;7.30;6.70;;;;;;;;;;5072422;28;20201;-84
2023/10/18 05:58:05;;;;;;;7.40;5.67;;;;;;;;;;5066125;28;20223;-81
2023/10/18 06:00:33;;;;;;;5.27;4.67;;;;;;;;;;5052212;28;20638;-82
2023/10/18 06:02:59;;;;;;;6.90;4.80;;;;;;;;;;5045446;28;20263;-81
2023/10/18 06:05:27;;;;;;;5.77;5.27;;;;;;;;;;5058346;28;20209;-83
2023/10/18 06:07:54;;;;;;;4.67;4.03;;;;;;;;;;5040067;28;20260;-79
2023/10/18 06:10:23;;;;;;;5.63;4.60;;;;;;;;;;5065031;28;20218;-82
2023/10/18 06:12:56;;;;;;;4.80;4.40;;;;;;;;;;5052278;28;20365;-85
2023/10/18 06:15:34;;;;;;;5.10;4.40;;;;;;;;;;5069654;28;20746;-84
2023/10/18 06:18:01;;;;;;;5.63;5.00;;;;;;;;;;5059376;28;20318;-84
2023/10/18 06:20:28;;;;;;;5.47;5.00;;;;;;;;;;5071143;28;20684;-83
2023/10/18 06:23:08;;;;;;;5.10;4.60;;;;;;;;;;5072298;28;20205;-86
2023/10/18 06:25:37;;;;;;;5.70;4.30;;;;;;;;;;5063942;28;20220;-85
2023/10/18 06:28:07;;;;;;;6.30;5.20;;;;;;;;;;5054918;28;20221;-85
2023/10/18 06:30:39;;;;;;;7.27;5.10;;;;;;;;;;5062921;28;20592;-84
2023/10/18 06:33:12;;;;;;;6.97;3.87;;;;;;;;;;5062622;28;20656;-82
2023/10/18 06:35:50;;;;;;;5.33;4.93;;;;;;;;;;5060605;28;20292;-79
2023/10/18 06:38:17;;;;;;;6.30;4.80;;;;;;;;;;5070068;28;20579;-80
2023/10/18 06:40:50;;;;;;;6.43;4.03;;;;;;;;;;5058620;28;20206;-80
2023/10/18 06:43:20;;;;;;;4.23;3.93;;;;;;;;;;5045473;28;20649;-81
2023/10/18 06:45:50;;;;;;;7.80;4.43;;;;;;;;;;5071144;28;20230;-87
2023/10/18 06:48:17;;;;;;;7.23;5.53;;;;;;;;;;5068766;28;20627;-86
2023/10/18 06:50:46;;;;;;;11.30;5.07;;;;;;;;;;5071634;28;20229;-84
2023/10/18 06:53:14;;;;;;;6.07;3.43;;;;;;;;;;5058521;28;20229;-83
2023/10/18 06:55:44;;;;;;;3.47;3.17;;;;;;;;;;5064150;28;20227;-86
2023/10/18 06:58:22;;;;;;;10.73;5.80;;;;;;;;;;5068457;28;20260;-86
2023/10/18 07:00:53;;;;;;;4.50;4.03;;;;;;;;;;5065139;28;20193;-84
2023/10/18 07:03:24;;;;;;;5.63;3.90;;;;;;;;;;5065926;28;20258;-82
2023/10/18 07:05:52;;;;;;;5.50;3.33;;;;;;;;;;5071077;28;20680;-92
2023/10/18 07:08:25;;;;;;;6.87;3.77;;;;;;;;;;5072319;28;20205;-85
2023/10/18 07:10:56;;;;;;;4.47;3.63;;;;;;;;;;5056378;28;20296;-82
2023/10/18 07:13:32;;;;;;;3.13;2.93;;;;;;;;;;5051094;28;20209;-88
2023/10/18 07:16:03;;;;;;;3.20;2.93;;;;;;;;;;5064719;28;20652;-84
2023/10/18 07:18:33;;;;;;;3.37;3.07;;;;;;;;;;5063721;28;20241;-86
2023/10/18 07:21:05;;;;;;;3.47;3.17;;;;;;;;;;5066809;28;20270;-89
2023/10/18 07:23:36;;;;;;;3.37;3.07;;;;;;;;;;5064588;28;20729;-87
2023/10/18 07:26:03;;;;;;;5.10;2.90;;;;;;;;;;5064609;28;20258;-84
2023/10/18 07:28:35;;;;;;;3.17;2.90;;;;;;;;;;5070040;28;20296;-89
2023/10/18 07:31:08;;;;;;;4.10;3.70;;;;;;;;;;5051492;28;20592;-83
2023/10/18 07:33:40;;;;;;;4.57;2.97;;;;;;;;;;5066338;28;20292;-89
2023/10/18 07:36:08;;;;;;;4.00;2.90;;;;;;;;;;5071157;28;20214;-83
2023/10/18 07:38:37;;;;;;;3.07;2.77;;;;;;;;;;5056885;28;20233;-78
2023/10/18 07:41:07;;;;;;;3.33;2.60;;;;;;;;;;5064453;28;20228;-83
2023/10/18 07:43:35;;;;;;;4.27;2.67;;;;;;;;;;5062177;28;20697;-83
2023/10/18 07:46:09;;;;;;;3.30;3.00;;;;;;;;;;5070440;28;20205;-82
2023/10/18 07:48:45;;;;;;;2.70;2.43;;;;;;;;;;5069908;28;20205;-84
2023/10/18 07:51:23;;;;;;;3.30;3.00;;;;;;;;;;5067198;28;20672;-84
2023/10/18 07:53:50;;;;;;;4.40;3.23;;;;;;;;;;5062637;28;20228;-84
2023/10/18 07:56:17;;;;;;;4.53;3.47;;;;;;;;;;5056655;28;20201;-84
2023/10/18 07:58:49;;;;;;;5.63;3.23;;;;;;;;;;5070853;28;20224;-85
2023/10/18 08:01:32;;;;;;;4.47;3.53;;;;;;;;;;5050622;28;20802;-83
2023/10/18 08:04:02;;;;;;;3.50;3.20;;;;;;;;;;5065636;28;20258;-84
2023/10/18 08:06:33;;;;;;;3.97;2.53;;;;;;;;;;5070478;28;20209;-82
2023/10/18 08:09:04;;;;;;;2.90;2.70;;;;;;;;;;5058300;28;20204;-84
2023/10/18 08:11:34;;;;;;;3.13;2.40;;;;;;;;;;5074598;28;20205;-84
2023/10/18 08:14:16;;;;;;;3.93;3.30;;;;;;;;;;5074401;28;20205;-82
2023/10/18 08:16:44;;;;;;;3.47;2.90;;;;;;;;;;5075004;28;20201;-86
2023/10/18 08:19:11;;;;;;;3.63;3.30;;;;;;;;;;5074379;28;20263;-85
2023/10/18 08:21:37;;;;;;;3.37;3.07;;;;;;;;;;5061282;28;20297;-79
2023/10/18 08:24:08;;;;;;;3.70;3.33;;;;;;;;;;5074194;28;20593;-83
2023/10/18 08:26:46;;;;;;;3.13;2.63;;;;;;;;;;5058712;28;20206;-84
2023/10/18 08:29:13;;;;;;;2.57;2.20;;;;;;;;;;5065399;28;20209;-88
2023/10/18 08:31:43;;;;;;;3.27;2.80;;;;;;;;;;5073763;28;20197;-84
2023/10/18 08:34:15;;;;;;;2.37;2.17;;;;;;;;;;5073683;28;20690;-87
2023/10/18 08:36:43;;;;;;;4.57;2.83;;;;;;;;;;5055056;28;20241;-86
2023/10/18 08:39:10;;;;;;;2.87;2.67;;;;;;;;;;5068991;28;20236;-81
2023/10/18 08:41:44;;;;;;;2.87;2.63;;;;;;;;;;5065626;28;20202;-79
2023/10/18 08:44:18;;;;;;;5.30;3.43;;;;;;;;;;5070421;28;20209;-78
2023/10/18 08:46:52;;;;;;;4.17;2.50;;;;;;;;;;5073450;28;20193;-81
2023/10/18 08:49:25;;;;;;;2.53;2.10;;;;;;;;;;5072663;28;20286;-81
2023/10/18 08:52:04;;;;;;;2.20;2.03;;;;;;;;;;5073004;28;20623;-81
2023/10/18 08:54:32;;;;;;;2.83;2.60;;;;;;;;;;5073444;28;20208;-80
2023/10/18 08:57:06;;;;;;;6.27;2.10;;;;;;;;;;5073125;28;20205;-80
2023/10/18 08:59:42;;;;;;;2.40;2.20;;;;;;;;;;5053518;28;20315;-82
2023/10/18 09:02:13;;;;;;;2.60;2.13;;;;;;;;;;5071046;28;20208;-82
2023/10/18 09:04:44;;;;;;;2.33;2.10;;;;;;;;;;5072934;28;20246;-76
2023/10/18 09:07:21;;;;;;;2.20;2.00;;;;;;;;;;5073047;28;20284;-77
2023/10/18 09:09:55;;;;;;;3.73;2.77;;;;;;;;;;5065813;28;20208;-84
2023/10/18 09:12:35;;;;;;;5.07;2.97;;;;;;;;;;5067748;28;20284;-80
2023/10/18 09:15:27;;;;;;;2.67;2.20;;;;;;;;;;5063060;28;20209;-85
2023/10/18 09:17:54;;;;;;;6.63;5.57;;;;;;;;;;5046363;28;20229;-83
2023/10/18 09:20:25;;;;;;;6.90;5.13;;;;;;;;;;5072146;28;20209;-80
2023/10/18 09:22:52;;;;;;;23.40;15.40;;;;;;;;;;5073159;28;20288;-80
2023/10/18 09:25:20;;;;;;;8.67;3.53;;;;;;;;;;5073251;28;20208;-82
2023/10/18 09:27:47;;;;;;;3.43;2.97;;;;;;;;;;5073171;28;20216;-79
2023/10/18 09:30:18;;;;;;;6.10;2.40;;;;;;;;;;5070152;28;20201;-82
2023/10/18 09:32:46;;;;;;;2.90;2.37;;;;;;;;;;5062458;28;20610;-83
2023/10/18 09:35:13;;;;;;;5.03;2.10;;;;;;;;;;5072433;28;20204;-79
2023/10/18 09:37:41;;;;;;;3.97;2.40;;;;;;;;;;5064466;28;20733;-81
2023/10/18 09:40:12;;;;;;;2.47;2.27;;;;;;;;;;5061902;28;20209;-83
2023/10/18 09:42:39;;;;;;;5.60;5.00;;;;;;;;;;5062206;28;20269;-83
2023/10/18 09:45:08;;;;;;;12.90;8.73;;;;;;;;;;5064147;28;20205;-82
2023/10/18 09:47:36;;;;;;;18.27;15.50;;;;;;;;;;5058890;28;20291;-83
2023/10/18 09:50:07;;;;;;;14.43;12.37;;;;;;;;;;5046793;28;20228;-83
2023/10/18 09:52:47;;;;;;;9.63;7.63;;;;;;;;;;5071523;28;20296;-83
2023/10/18 09:55:20;;;;;;;17.13;7.90;;;;;;;;;;5072103;28;20693;-81
2023/10/18 09:57:59;;;;;;;5.67;5.17;;;;;;;;;;5072575;28;20205;-83
2023/10/18 10:00:29;;;;;;;16.40;10.63;;;;;;;;;;5071858;28;20204;-81
2023/10/18 10:02:57;;;;;;;19.83;12.57;;;;;;;;;;5057386;28;20208;-81
2023/10/18 10:05:25;;;;;;;13.40;11.17;;;;;;;;;;5071961;28;20220;-80
2023/10/18 10:07:55;;;;;;;12.77;10.93;;;;;;;;;;5058500;28;20248;-81
2023/10/18 10:10:42;;;;;;;7.00;6.30;;;;;;;;;;5071709;28;20210;-80
2023/10/18 10:13:12;;;;;;;11.83;9.23;;;;;;;;;;5071862;28;20206;-79
2023/10/18 10:15:40;;;;;;;15.57;13.73;;;;;;;;;;5071132;28;20247;-80
2023/10/18 10:18:10;;;;;;;13.63;12.20;;;;;;;;;;5071459;28;20232;-80
2023/10/18 10:20:40;;;;;;;8.13;6.33;;;;;;;;;;5071351;28;20237;-81
2023/10/18 10:23:13;;;;;;;17.93;7.97;;;;;;;;;;5060624;28;20308;-80
2023/10/18 10:25:48;;;;;;;3.83;2.57;;;;;;;;;;5071521;28;20706;-83
2023/10/18 10:29:10;;;;;;;3.83;3.33;;;;;;;;;;5071697;28;20212;-82
2023/10/18 10:31:23;;;;;;;5.37;4.87;;;;;;;;;;5066832;28;20212;-81
2023/10/18 10:34:09;;;;;;;3.60;3.30;;;;;;;;;;5061379;28;20309;-87
2023/10/18 10:36:38;;;;;;;2.63;2.43;;;;;;;;;;5065464;28;20266;-84
2023/10/18 10:39:12;;;;;;;4.77;4.37;;;;;;;;;;5064293;28;20650;-82
2023/10/18 10:41:41;;;;;;;9.53;8.53;;;;;;;;;;5045953;28;20291;-79
2023/10/18 10:44:10;;;;;;;3.20;2.97;;;;;;;;;;5071145;28;20206;-79
2023/10/18 10:46:39;;;;;;;2.30;2.17;;;;;;;;;;5070559;28;20205;-79
2023/10/18 10:49:47;;;;;;;3.87;3.03;;;;;;;;;;5067134;28;20237;-78
2023/10/18 10:52:18;;;;;;;55.20;28.87;;;;;;;;;;5060458;28;20205;-78
2023/10/18 10:54:51;;;;;;;88.57;47.03;;;;;;;;;;5070885;28;20205;-79
2023/10/18 10:57:21;;;;;;;69.43;38.83;;;;;;;;;;5066310;28;20283;-79
2023/10/18 10:59:55;;;;;;;30.97;20.07;;;;;;;;;;5063710;28;20236;-78
2023/10/18 11:02:24;;;;;;;11.90;9.07;;;;;;;;;;5046002;28;20210;-79
2023/10/18 11:04:57;;;;;;;4.70;4.20;;;;;;;;;;5057115;28;20288;-79
2023/10/18 11:07:26;;;;;;;4.47;4.07;;;;;;;;;;5050698;28;20210;-83
2023/10/18 11:09:59;;;;;;;6.10;5.60;;;;;;;;;;5053704;28;20212;-85
2023/10/18 11:12:29;;;;;;;5.70;3.13;;;;;;;;;;5070404;28;20597;-85
2023/10/18 11:14:56;;;;;;;3.20;1.90;;;;;;;;;;5070435;28;20201;-84
2023/10/18 11:17:24;;;;;;;3.50;3.20;;;;;;;;;;5070479;28;20211;-84
2023/10/18 11:19:54;;;;;;;5.53;3.07;;;;;;;;;;5053864;28;20232;-84
2023/10/18 11:22:22;;;;;;;3.40;3.10;;;;;;;;;;5062810;28;20308;-80
2023/10/18 11:24:50;;;;;;;8.60;6.27;;;;;;;;;;5070560;28;20201;-83
2023/10/18 11:27:18;;;;;;;5.67;4.77;;;;;;;;;;5070524;28;20205;-84
2023/10/18 11:29:47;;;;;;;4.70;4.07;;;;;;;;;;5064495;28;20198;-84
2023/10/18 11:32:18;;;;;;;7.63;4.10;;;;;;;;;;5064349;28;20207;-85
2023/10/18 11:34:45;;;;;;;2.73;2.20;;;;;;;;;;5050841;28;20201;-82
2023/10/18 11:37:26;;;;;;;3.63;2.80;;;;;;;;;;5070001;28;20212;-81
2023/10/18 11:39:55;;;;;;;2.70;2.10;;;;;;;;;;5070476;28;20292;-79
2023/10/18 11:42:22;;;;;;;4.10;2.23;;;;;;;;;;5070465;28;20455;-81
2023/10/18 11:44:55;;;;;;;1.57;1.40;;;;;;;;;;5069821;28;20208;-82
2023/10/18 11:47:22;;;;;;;1.73;1.63;;;;;;;;;;5069194;28;20212;-84
2023/10/18 11:49:53;;;;;;;5.13;2.90;;;;;;;;;;5069109;28;20308;-85
2023/10/18 11:52:22;;;;;;;10.17;4.17;;;;;;;;;;5070588;28;20761;-79
2023/10/18 11:54:51;;;;;;;8.00;5.50;;;;;;;;;;5054878;28;20264;-83
2023/10/18 11:57:26;;;;;;;5.40;4.90;;;;;;;;;;5054635;28;20278;-82
2023/10/18 11:59:55;;;;;;;7.47;6.87;;;;;;;;;;5058356;28;20247;-86
2023/10/18 12:02:25;;;;;;;3.30;3.10;;;;;;;;;;5069842;28;20269;-84
2023/10/18 12:04:53;;;;;;;4.33;2.67;;;;;;;;;;5070406;28;20292;-83
2023/10/18 12:07:22;;;;;;;4.67;3.20;;;;;;;;;;5069595;28;20202;-84
2023/10/18 12:09:51;;;;;;;2.10;2.00;;;;;;;;;;5069407;28;20201;-82
2023/10/18 12:12:20;;;;;;;2.43;1.90;;;;;;;;;;5057529;28;20574;-83
2023/10/18 12:14:47;;;;;;;2.80;2.40;;;;;;;;;;5068716;28;20235;-84
2023/10/18 12:17:16;;;;;;;2.00;1.57;;;;;;;;;;5058572;28;20227;-86
2023/10/18 12:19:44;;;;;;;5.23;3.30;;;;;;;;;;5057241;28;20765;-84
2023/10/18 12:22:13;;;;;;;4.17;1.80;;;;;;;;;;5070261;28;20204;-83
2023/10/18 12:24:41;;;;;;;3.13;2.87;;;;;;;;;;5069867;28;20755;-85
2023/10/18 12:27:18;;;;;;;4.90;2.93;;;;;;;;;;5069431;28;20232;-85
2023/10/18 12:29:45;;;;;;;7.50;4.60;;;;;;;;;;5068997;28;20204;-82
2023/10/18 12:32:23;;;;;;;4.23;3.73;;;;;;;;;;5056657;28;20206;-85
2023/10/18 12:34:52;;;;;;;6.57;3.10;;;;;;;;;;5060527;28;20235;-80
2023/10/18 12:37:19;;;;;;;9.73;5.00;;;;;;;;;;5056083;28;20201;-77
2023/10/18 12:39:47;;;;;;;7.50;4.27;;;;;;;;;;5068767;28;20229;-77
2023/10/18 12:42:14;;;;;;;5.20;3.17;;;;;;;;;;5056332;28;20259;-80
2023/10/18 12:44:45;;;;;;;5.77;5.17;;;;;;;;;;5065515;28;20198;-79
2023/10/18 12:47:12;;;;;;;4.77;3.80;;;;;;;;;;5065563;28;20645;-79
2023/10/18 12:49:44;;;;;;;6.90;2.67;;;;;;;;;;5068042;28;20227;-79
2023/10/18 12:54:56;;;;;;;190.23;117.20;;;;;;;;;;5068896;28;20425;-79
2023/10/18 12:57:32;;;;;;;45.93;29.40;;;;;;;;;;5070905;28;20691;-79
2023/10/18 13:00:13;;;;;;;24.67;19.17;;;;;;;;;;5072074;28;20612;-79
2023/10/18 13:03:15;;;;;;;13.23;8.60;;;;;;;;;;5072919;28;20675;-79
2023/10/18 13:05:41;;;;;;;3.30;2.07;;;;;;;;;;5072429;28;20679;-79
2023/10/18 13:08:17;;;;;;;7.07;2.07;;;;;;;;;;5073028;28;20247;-79
2023/10/18 13:10:57;;;;;;;4.37;2.63;;;;;;;;;;5073362;28;20284;-79
2023/10/18 13:13:23;;;;;;;8.87;7.83;;;;;;;;;;5060034;28;20217;-79
2023/10/18 13:15:50;;;;;;;10.23;8.73;;;;;;;;;;5072313;28;20205;-79
2023/10/18 13:18:16;;;;;;;8.80;7.43;;;;;;;;;;5072941;28;20201;-79
2023/10/18 13:20:44;;;;;;;8.97;7.73;;;;;;;;;;5073263;28;20286;-79
2023/10/18 13:23:18;;;;;;;10.10;9.20;;;;;;;;;;5072348;28;20200;-80
2023/10/18 13:25:51;;;;;;;4.27;3.57;;;;;;;;;;5072627;28;20209;-79
2023/10/18 13:28:33;;;;;;;4.23;2.60;;;;;;;;;;5072530;28;20635;-79
2023/10/18 13:31:04;;;;;;;4.60;2.17;;;;;;;;;;5073026;28;20211;-78
2023/10/18 13:33:33;;;;;;;2.67;1.67;;;;;;;;;;5071786;28;20201;-79
2023/10/18 13:36:01;;;;;;;2.07;1.93;;;;;;;;;;5072967;28;20285;-79
2023/10/18 13:38:29;;;;;;;3.13;2.20;;;;;;;;;;5072720;28;20266;-79
2023/10/18 13:40:56;;;;;;;14.73;4.73;;;;;;;;;;5072694;28;20577;-80
2023/10/18 13:43:24;;;;;;;4.20;2.30;;;;;;;;;;5046486;28;20703;-79
2023/10/18 13:46:00;;;;;;;6.07;3.30;;;;;;;;;;5071876;28;20767;-79
2023/10/18 13:48:27;;;;;;;7.33;5.10;;;;;;;;;;5072309;28;20699;-79
2023/10/18 13:50:58;;;;;;;3.27;2.40;;;;;;;;;;5072011;28;20233;-79
2023/10/18 13:53:25;;;;;;;7.13;2.00;;;;;;;;;;5072434;28;20281;-79
2023/10/18 13:55:58;;;;;;;3.50;1.70;;;;;;;;;;5071619;28;20209;-79
2023/10/18 13:58:25;;;;;;;1.73;1.60;;;;;;;;;;5072461;28;20204;-79
2023/10/18 14:00:52;;;;;;;4.47;1.87;;;;;;;;;;5071962;28;20708;-79
2023/10/18 14:03:23;;;;;;;3.43;1.60;;;;;;;;;;5071988;28;20280;-79
2023/10/18 14:05:50;;;;;;;2.40;2.03;;;;;;;;;;5070908;28;20201;-79
2023/10/18 14:08:18;;;;;;;4.40;2.00;;;;;;;;;;5071604;28;20198;-79
2023/10/18 14:10:45;;;;;;;2.40;2.20;;;;;;;;;;5071474;28;20288;-79
2023/10/18 14:13:14;;;;;;;2.47;1.63;;;;;;;;;;5071825;28;20211;-79
2023/10/18 14:15:43;;;;;;;2.97;1.80;;;;;;;;;;5070772;28;20355;-79
2023/10/18 14:18:10;;;;;;;2.73;1.53;;;;;;;;;;5060849;28;20202;-79
2023/10/18 14:20:38;;;;;;;2.13;1.90;;;;;;;;;;5069200;28;20221;-79
2023/10/18 14:23:09;;;;;;;2.40;1.60;;;;;;;;;;5062745;28;20259;-80
2023/10/18 14:25:37;;;;;;;5.07;1.97;;;;;;;;;;5064658;28;20210;-79
2023/10/18 14:28:05;;;;;;;5.90;1.90;;;;;;;;;;5071520;28;20660;-79
2023/10/18 14:30:35;;;;;;;3.37;2.30;;;;;;;;;;5071052;28;20201;-79
2023/10/18 14:33:04;;;;;;;3.07;1.57;;;;;;;;;;5071244;28;20201;-79
2023/10/18 14:35:31;;;;;;;2.27;1.80;;;;;;;;;;5044819;28;20255;-80
2023/10/18 14:38:00;;;;;;;2.63;1.97;;;;;;;;;;5071192;28;20212;-81
2023/10/18 14:40:34;;;;;;;4.33;1.90;;;;;;;;;;5071678;28;20282;-79
2023/10/18 14:43:03;;;;;;;1.67;1.57;;;;;;;;;;5069437;28;20278;-79
2023/10/18 14:45:32;;;;;;;2.50;2.30;;;;;;;;;;5060432;28;20204;-79
2023/10/18 14:48:00;;;;;;;8.37;1.50;;;;;;;;;;5067675;28;20225;-79
2023/10/18 14:50:27;;;;;;;2.43;1.80;;;;;;;;;;5061947;28;20221;-79
2023/10/18 14:52:54;;;;;;;4.63;2.17;;;;;;;;;;5070353;28;20205;-80
2023/10/18 14:55:22;;;;;;;1.97;1.60;;;;;;;;;;5071468;28;20587;-80
2023/10/18 14:57:49;;;;;;;4.27;2.00;;;;;;;;;;5070891;28;20680;-79
2023/10/18 15:00:20;;;;;;;4.03;2.70;;;;;;;;;;5060156;28;20240;-79
2023/10/18 15:02:50;;;;;;;6.53;4.23;;;;;;;;;;5069682;28;20602;-80
2023/10/18 15:05:20;;;;;;;5.30;3.70;;;;;;;;;;5070881;28;20209;-79
2023/10/18 15:07:48;;;;;;;8.97;4.27;;;;;;;;;;5061767;28;20204;-79